LGW weather

London Gatwick Airport
London, England, United Kingdom

Public forecast

Using degrees Celsius for public forecast. Weather courtesy of forecast.io.

METAR (pilot weather report)

Retrieved 2018/02/18 21:50 UTC (2 hours ago):

EGKK 182150Z 15003KT 6000 BKN010 07/06 Q1020

TAF (pilot weather forecast)

Retrieved 2018/02/18 18:15 UTC (5 hours ago):

TAF EGKK 181702Z 1818/1924 16010KT 9999 SCT020 BECMG 1821/1823 VRB03KT 8000 BKN012 BECMG 1823/1902 4000 BR BKN006 PROB30 TEMPO 1900/1910 0300 FG BKN001 TEMPO 1910/1924 RADZ BKN003